Time;durP1;ratioP1;P1;durP2;ratioP2;P2;SDS_P1;SDS_P2;PMS_P1;PMS_P2;Temp;Humidity;BMP_temperature;BMP_pressure;BME280_temperature;BME280_humidity;BME280_pressure;Samples;Min_cycle;Max_cycle;Signal;HPM_P1;HPM_P2
2023/04/05 00:00:31;;;;;;;1.57;1.10;;;0.40;99.90;;;;;;4146207;28;20288;-65
2023/04/05 00:02:32;;;;;;;1.17;0.90;;;0.40;99.90;;;;;;4146277;28;20302;-66
2023/04/05 00:04:33;;;;;;;1.27;0.90;;;0.40;99.90;;;;;;4149283;28;20283;-61
2023/04/05 00:06:36;;;;;;;1.40;0.87;;;0.40;99.90;;;;;;4150929;28;20341;-68
2023/04/05 00:08:38;;;;;;;1.77;1.00;;;0.40;99.90;;;;;;4157970;28;20349;-62
2023/04/05 00:10:39;;;;;;;2.03;0.80;;;0.30;99.90;;;;;;4154034;28;20325;-61
2023/04/05 00:12:40;;;;;;;1.20;0.87;;;0.40;99.90;;;;;;4146524;28;20267;-60
2023/04/05 00:14:41;;;;;;;1.13;0.80;;;0.40;99.90;;;;;;4155357;28;20274;-61
2023/04/05 00:16:42;;;;;;;0.80;0.70;;;0.40;99.90;;;;;;4162454;28;20299;-61
2023/04/05 00:18:50;;;;;;;1.20;0.80;;;0.40;99.90;;;;;;4149808;28;20287;-61
2023/04/05 00:20:52;;;;;;;2.27;1.07;;;0.40;99.90;;;;;;4151822;28;20378;-61
2023/04/05 00:22:53;;;;;;;1.83;1.10;;;0.40;99.90;;;;;;4149236;28;20702;-63
2023/04/05 00:24:55;;;;;;;2.00;1.27;;;0.40;99.90;;;;;;4146063;28;20736;-61
2023/04/05 00:26:56;;;;;;;1.10;0.60;;;0.40;99.90;;;;;;4151095;28;20758;-61
2023/04/05 00:28:57;;;;;;;1.23;0.80;;;0.40;99.90;;;;;;4158365;28;20271;-64
2023/04/05 00:30:59;;;;;;;1.77;1.00;;;0.40;99.90;;;;;;4146225;28;20267;-66
2023/04/05 00:33:00;;;;;;;2.70;0.87;;;0.40;99.90;;;;;;4146381;28;20260;-60
2023/04/05 00:35:01;;;;;;;1.70;1.10;;;0.40;99.90;;;;;;4145973;28;20715;-59
2023/04/05 00:37:02;;;;;;;1.93;1.03;;;0.40;99.90;;;;;;4145183;28;20268;-60
2023/04/05 00:39:03;;;;;;;1.63;1.20;;;0.30;99.90;;;;;;4145905;28;20764;-67
2023/04/05 00:41:04;;;;;;;1.50;0.90;;;0.30;99.90;;;;;;4145701;28;20275;-62
2023/04/05 00:43:06;;;;;;;1.13;0.80;;;0.30;99.90;;;;;;4145661;28;20743;-61
2023/04/05 00:45:07;;;;;;;0.67;0.67;;;0.30;99.90;;;;;;4145717;28;20739;-60
2023/04/05 00:47:08;;;;;;;1.10;0.80;;;0.30;99.90;;;;;;4145806;28;20314;-60
2023/04/05 00:49:10;;;;;;;2.60;0.93;;;0.30;99.90;;;;;;4144529;28;20290;-61
2023/04/05 00:51:11;;;;;;;3.37;1.20;;;0.30;99.90;;;;;;4150541;28;20274;-62
2023/04/05 00:53:12;;;;;;;1.10;0.67;;;0.30;99.90;;;;;;4161387;28;20279;-63
2023/04/05 00:55:14;;;;;;;1.20;0.80;;;0.30;99.90;;;;;;4159871;28;20267;-63
2023/04/05 00:57:15;;;;;;;1.37;1.13;;;0.30;99.90;;;;;;4161532;28;20251;-61
2023/04/05 00:59:16;;;;;;;1.03;0.90;;;0.30;99.90;;;;;;4161728;28;20320;-62
2023/04/05 01:01:21;;;;;;;1.93;1.10;;;0.30;99.90;;;;;;4146012;28;20287;-62
2023/04/05 01:03:24;;;;;;;1.97;1.20;;;0.30;99.90;;;;;;4157651;28;20689;-62
2023/04/05 01:05:35;;;;;;;1.67;1.10;;;0.30;99.90;;;;;;4145453;28;20284;-64
2023/04/05 01:07:44;;;;;;;1.67;1.10;;;0.30;99.90;;;;;;4145241;28;20283;-63
2023/04/05 01:09:54;;;;;;;1.40;1.10;;;0.30;99.90;;;;;;4145681;28;20256;-64
2023/04/05 01:11:57;;;;;;;1.42;0.77;;;0.30;99.90;;;;;;4145970;28;20326;-62
2023/04/05 01:14:00;;;;;;;3.47;1.10;;;0.20;99.90;;;;;;4145259;28;20494;-60
2023/04/05 01:16:01;;;;;;;1.27;0.90;;;0.20;99.90;;;;;;4145361;28;20334;-63
2023/04/05 01:18:03;;;;;;;1.00;0.80;;;0.20;99.90;;;;;;4145430;28;20263;-60
2023/04/05 01:20:09;;;;;;;1.40;1.27;;;0.20;99.90;;;;;;4144950;28;20353;-60
2023/04/05 01:22:40;;;;;;;3.47;0.90;;;0.10;99.90;;;;;;4144951;28;20322;-60
2023/04/05 01:25:10;;;;;;;1.45;1.00;;;0.20;99.90;;;;;;4129256;28;20268;-59
2023/04/05 01:27:21;;;;;;;1.02;0.90;;;0.10;99.90;;;;;;4121808;28;20116;-59
2023/04/05 01:29:44;;;;;;;1.63;1.00;;;0.20;99.90;;;;;;4129012;28;20046;-59
2023/04/05 01:31:55;;;;;;;2.20;1.10;;;0.20;99.90;;;;;;4129007;28;20342;-59
2023/04/05 01:33:56;;;;;;;1.70;1.17;;;0.20;99.90;;;;;;4129108;28;20272;-61
2023/04/05 01:36:14;;;;;;;3.07;1.03;;;0.20;99.90;;;;;;4127261;28;20050;-59
2023/04/05 01:38:21;;;;;;;1.40;1.00;;;0.20;99.90;;;;;;4128937;28;20272;-59
2023/04/05 01:40:22;;;;;;;1.63;1.10;;;0.20;99.90;;;;;;4128943;28;20268;-63
2023/04/05 01:42:25;;;;;;;3.50;1.00;;;0.20;99.90;;;;;;4129251;28;20260;-59
2023/04/05 01:44:27;;;;;;;2.03;1.00;;;0.20;99.90;;;;;;4128735;28;20672;-59
2023/04/05 01:46:28;;;;;;;2.27;0.83;;;0.30;99.90;;;;;;4128857;28;20256;-61
2023/04/05 01:48:29;;;;;;;1.20;1.10;;;0.30;99.90;;;;;;4128700;28;20261;-61
2023/04/05 01:50:30;;;;;;;1.53;0.80;;;0.30;99.90;;;;;;4128450;28;20323;-65
2023/04/05 01:52:32;;;;;;;1.27;1.07;;;0.40;99.90;;;;;;4128761;28;20264;-66
2023/04/05 01:54:33;;;;;;;1.43;1.00;;;0.40;99.90;;;;;;4128522;28;20268;-60
2023/04/05 01:56:34;;;;;;;2.43;0.90;;;0.40;99.90;;;;;;4132289;28;20288;-60
2023/04/05 01:58:35;;;;;;;0.90;0.80;;;0.40;99.90;;;;;;4144842;28;20313;-65
2023/04/05 02:00:36;;;;;;;1.30;1.00;;;0.40;99.90;;;;;;4144673;28;20267;-59
2023/04/05 02:02:37;;;;;;;2.80;1.10;;;0.40;99.90;;;;;;4144772;28;20272;-62
2023/04/05 02:04:39;;;;;;;1.17;0.90;;;0.40;99.90;;;;;;4148103;28;20279;-65
2023/04/05 02:06:40;;;;;;;2.33;1.23;;;0.40;99.90;;;;;;4143927;28;20271;-61
2023/04/05 02:08:41;;;;;;;1.53;0.93;;;0.50;99.90;;;;;;4144131;28;20702;-61
2023/04/05 02:10:43;;;;;;;1.73;1.17;;;0.50;99.90;;;;;;4144490;28;20748;-59
2023/04/05 02:12:44;;;;;;;1.37;1.00;;;0.50;99.90;;;;;;4145038;28;20260;-60
2023/04/05 02:14:45;;;;;;;1.67;1.03;;;0.50;99.90;;;;;;4144398;28;20322;-59
2023/04/05 02:16:46;;;;;;;2.00;1.10;;;0.60;99.90;;;;;;4144304;28;20293;-61
2023/04/05 02:18:49;;;;;;;1.50;1.17;;;0.60;99.90;;;;;;4144449;28;20318;-60
2023/04/05 02:20:51;;;;;;;2.07;1.30;;;0.60;99.90;;;;;;4143754;28;20268;-61
2023/04/05 02:22:52;;;;;;;2.57;1.93;;;0.60;99.90;;;;;;4144728;28;20838;-61
2023/04/05 02:24:53;;;;;;;1.30;1.13;;;0.60;99.90;;;;;;4144266;28;20644;-60
2023/04/05 02:26:55;;;;;;;3.23;1.10;;;0.60;99.90;;;;;;4144527;28;20272;-59
2023/04/05 02:28:56;;;;;;;1.43;1.03;;;0.60;99.90;;;;;;4144107;28;20755;-66
2023/04/05 02:30:57;;;;;;;1.60;1.13;;;0.60;99.90;;;;;;4144376;28;20326;-60
2023/04/05 02:32:58;;;;;;;3.60;1.03;;;0.60;99.90;;;;;;4144230;28;20342;-66
2023/04/05 02:35:00;;;;;;;3.50;1.10;;;0.60;99.90;;;;;;4144403;28;20314;-61
2023/04/05 02:37:01;;;;;;;0.90;0.80;;;0.70;99.90;;;;;;4143939;28;20349;-59
2023/04/05 02:39:03;;;;;;;1.30;1.20;;;0.60;99.90;;;;;;4144266;28;20838;-65
2023/04/05 02:41:09;;;;;;;2.90;1.13;;;0.60;99.90;;;;;;4144200;28;20272;-61
2023/04/05 02:43:10;;;;;;;1.83;0.90;;;0.60;99.90;;;;;;4144712;28;20310;-61
2023/04/05 02:45:11;;;;;;;2.07;1.00;;;0.60;99.90;;;;;;4143951;28;20326;-64
2023/04/05 02:47:16;;;;;;;3.23;1.20;;;0.60;99.90;;;;;;4144098;28;20264;-64
2023/04/05 02:49:17;;;;;;;1.10;1.00;;;0.70;99.90;;;;;;4144051;28;20322;-61
2023/04/05 02:51:18;;;;;;;1.50;1.00;;;0.60;99.90;;;;;;4144163;28;20318;-59
2023/04/05 02:53:20;;;;;;;1.60;1.10;;;0.70;99.90;;;;;;4143971;28;20318;-60
2023/04/05 02:55:21;;;;;;;1.73;1.10;;;0.70;99.90;;;;;;4144095;28;20264;-61
2023/04/05 02:57:22;;;;;;;1.43;1.00;;;0.70;99.90;;;;;;4143778;28;20321;-61
2023/04/05 02:59:23;;;;;;;1.47;1.23;;;0.70;99.90;;;;;;4143675;28;20336;-61
2023/04/05 03:01:25;;;;;;;2.43;1.43;;;0.70;99.90;;;;;;4143381;28;20342;-61
2023/04/05 03:03:28;;;;;;;1.83;1.00;;;0.70;99.90;;;;;;4143581;28;20272;-61
2023/04/05 03:05:29;;;;;;;2.33;1.33;;;0.60;99.90;;;;;;4143601;28;20279;-60
2023/04/05 03:07:31;;;;;;;4.33;1.40;;;0.60;99.90;;;;;;4143620;28;20287;-60
2023/04/05 03:09:33;;;;;;;6.10;1.40;;;0.60;99.90;;;;;;4143394;28;20317;-61
2023/04/05 03:11:34;;;;;;;1.23;0.90;;;0.60;99.90;;;;;;4143890;28;20812;-59
2023/04/05 03:13:35;;;;;;;1.50;1.10;;;0.60;99.90;;;;;;4144348;28;20329;-60
2023/04/05 03:15:37;;;;;;;1.00;0.90;;;0.60;99.90;;;;;;4143597;28;20272;-60
2023/04/05 03:17:38;;;;;;;1.47;0.97;;;0.60;99.90;;;;;;4142850;28;20334;-60
2023/04/05 03:19:39;;;;;;;1.83;1.43;;;0.60;99.90;;;;;;4143792;28;20272;-61
2023/04/05 03:21:41;;;;;;;1.50;1.30;;;0.60;99.90;;;;;;4143673;28;21212;-62
2023/04/05 03:23:42;;;;;;;1.90;1.40;;;0.60;99.90;;;;;;4143801;28;20277;-66
2023/04/05 03:25:43;;;;;;;3.40;1.57;;;0.70;99.90;;;;;;4143664;28;20259;-61
2023/04/05 03:27:44;;;;;;;2.10;1.53;;;0.70;99.90;;;;;;4143616;28;20313;-61
2023/04/05 03:29:46;;;;;;;2.77;1.30;;;0.70;99.90;;;;;;4143114;28;20707;-61
2023/04/05 03:31:48;;;;;;;2.37;1.40;;;0.70;99.90;;;;;;4143787;28;20259;-59
2023/04/05 03:33:50;;;;;;;1.97;1.50;;;0.70;99.90;;;;;;4148772;28;20320;-60
2023/04/05 03:35:51;;;;;;;2.60;1.70;;;0.70;99.90;;;;;;4149304;28;20318;-59
2023/04/05 03:37:52;;;;;;;3.10;1.53;;;0.70;99.90;;;;;;4143061;28;20322;-58
2023/04/05 03:39:53;;;;;;;3.20;2.03;;;0.70;99.90;;;;;;4143391;28;20267;-58
2023/04/05 03:41:55;;;;;;;3.17;1.47;;;0.70;99.90;;;;;;4149924;28;20321;-60
2023/04/05 03:43:56;;;;;;;2.00;1.53;;;0.70;99.90;;;;;;4142663;28;20337;-59
2023/04/05 03:45:57;;;;;;;2.07;1.77;;;0.60;99.90;;;;;;4148022;28;20305;-60
2023/04/05 03:47:59;;;;;;;3.27;2.17;;;0.70;99.90;;;;;;4159476;28;20267;-60
2023/04/05 03:50:01;;;;;;;2.27;1.73;;;0.60;99.90;;;;;;4159718;28;20816;-61
2023/04/05 03:52:02;;;;;;;2.60;1.80;;;0.60;99.90;;;;;;4159687;28;20338;-68
2023/04/05 03:54:04;;;;;;;3.73;2.37;;;0.60;99.90;;;;;;4159538;28;20275;-59
2023/04/05 03:56:06;;;;;;;3.83;2.10;;;0.60;99.90;;;;;;4149497;28;20836;-62
2023/04/05 03:58:07;;;;;;;3.67;1.93;;;0.70;99.90;;;;;;4159139;28;20325;-61
2023/04/05 04:00:13;;;;;;;2.77;1.60;;;0.60;99.90;;;;;;4159530;28;20306;-60
2023/04/05 04:02:14;;;;;;;3.20;2.13;;;0.60;99.90;;;;;;4157107;28;20333;-59
2023/04/05 04:04:15;;;;;;;3.63;2.60;;;0.70;99.90;;;;;;4148599;28;20270;-60
2023/04/05 04:06:17;;;;;;;4.40;2.67;;;0.70;99.90;;;;;;4144042;28;20284;-61
2023/04/05 04:08:18;;;;;;;3.37;1.93;;;0.70;99.90;;;;;;4145498;28;20697;-61
2023/04/05 04:10:19;;;;;;;3.03;2.03;;;0.70;99.90;;;;;;4151768;28;20275;-65
2023/04/05 04:12:20;;;;;;;3.50;1.90;;;0.70;99.90;;;;;;4143218;28;20271;-61
2023/04/05 04:14:23;;;;;;;2.20;1.60;;;0.70;99.90;;;;;;4143015;28;20751;-59
2023/04/05 04:16:24;;;;;;;3.77;1.83;;;0.70;99.90;;;;;;4142933;28;20349;-63
2023/04/05 04:18:25;;;;;;;3.37;2.23;;;0.70;99.90;;;;;;4142310;28;20304;-59
2023/04/05 04:20:27;;;;;;;4.10;2.30;;;0.70;99.90;;;;;;4141993;28;20373;-64
2023/04/05 04:22:37;;;;;;;3.23;2.33;;;0.70;99.90;;;;;;4142524;28;20307;-60
2023/04/05 04:24:39;;;;;;;3.17;2.13;;;0.70;99.90;;;;;;4135604;28;20643;-61
2023/04/05 04:26:41;;;;;;;3.17;1.93;;;0.70;99.90;;;;;;4142549;28;20054;-60
2023/04/05 04:28:42;;;;;;;2.73;1.90;;;0.70;99.90;;;;;;4148192;28;20278;-62
2023/04/05 04:30:44;;;;;;;2.97;1.70;;;0.80;99.90;;;;;;4150383;28;20274;-59
2023/04/05 04:32:54;;;;;;;3.10;2.20;;;0.80;99.90;;;;;;4145734;28;20660;-62
2023/04/05 04:34:55;;;;;;;5.22;2.20;;;0.80;99.90;;;;;;4148538;28;22065;-66
2023/04/05 04:36:59;;;;;;;3.53;2.73;;;0.80;99.90;;;;;;4149215;28;20457;-66
2023/04/05 04:39:07;;;;;;;5.50;1.93;;;0.90;99.90;;;;;;4144934;28;20361;-63
2023/04/05 04:41:10;;;;;;;3.40;1.80;;;0.90;99.90;;;;;;4144084;28;20605;-61
2023/04/05 04:43:15;;;;;;;4.93;2.03;;;0.90;99.90;;;;;;4144150;28;20745;-67
2023/04/05 04:45:18;;;;;;;6.53;3.93;;;0.90;99.90;;;;;;4145012;28;20602;-62
2023/04/05 04:47:20;;;;;;;6.70;3.80;;;1.00;99.90;;;;;;4145918;28;20340;-63
2023/04/05 04:49:22;;;;;;;6.47;3.77;;;1.00;99.90;;;;;;4147061;28;20295;-64
2023/04/05 04:51:23;;;;;;;3.87;2.50;;;1.10;99.90;;;;;;4143792;28;20271;-59
2023/04/05 04:53:25;;;;;;;8.03;3.60;;;1.10;99.90;;;;;;4144538;28;20341;-62
2023/04/05 04:55:26;;;;;;;6.53;3.93;;;1.20;99.90;;;;;;4145716;28;20263;-63
2023/04/05 04:57:28;;;;;;;5.63;3.03;;;1.20;99.90;;;;;;4147852;28;20758;-55
2023/04/05 04:59:31;;;;;;;5.00;2.80;;;1.20;99.90;;;;;;4154432;28;20291;-64
2023/04/05 05:01:33;;;;;;;4.57;2.83;;;1.20;99.90;;;;;;4148659;28;20707;-60
2023/04/05 05:03:36;;;;;;;5.97;3.27;;;1.30;99.90;;;;;;4145955;28;20718;-61
2023/04/05 05:05:43;;;;;;;6.43;3.33;;;1.30;99.90;;;;;;4146354;28;20838;-57
2023/04/05 05:07:45;;;;;;;4.83;3.07;;;1.30;99.90;;;;;;4146954;28;20291;-63
2023/04/05 05:09:46;;;;;;;6.23;3.60;;;1.30;99.90;;;;;;4152037;28;20278;-60
2023/04/05 05:11:47;;;;;;;4.17;2.73;;;1.30;99.90;;;;;;4161840;28;20337;-64
2023/04/05 05:13:50;;;;;;;5.73;3.30;;;1.40;99.90;;;;;;4161196;28;20362;-61
2023/04/05 05:15:51;;;;;;;5.67;3.20;;;1.40;99.90;;;;;;4160270;28;20329;-58
2023/04/05 05:17:55;;;;;;;7.57;3.33;;;1.50;99.90;;;;;;4159743;28;20724;-58
2023/04/05 05:19:59;;;;;;;4.07;2.60;;;1.50;99.90;;;;;;4161214;28;20270;-60
2023/04/05 05:22:00;;;;;;;2.70;1.67;;;1.50;99.90;;;;;;4161042;28;20394;-61
2023/04/05 05:24:01;;;;;;;3.33;1.83;;;1.60;99.90;;;;;;4161599;28;20750;-60
2023/04/05 05:26:02;;;;;;;3.67;1.80;;;1.60;99.90;;;;;;4161480;28;20317;-60
2023/04/05 05:28:03;;;;;;;6.17;3.20;;;1.70;99.90;;;;;;4161069;28;20313;-62
2023/04/05 05:30:05;;;;;;;4.53;3.00;;;1.70;99.90;;;;;;4159595;28;20333;-59
2023/04/05 05:32:08;;;;;;;6.50;3.50;;;1.80;99.90;;;;;;4161017;28;20301;-59
2023/04/05 05:34:09;;;;;;;19.43;8.27;;;1.90;99.90;;;;;;4160902;28;20742;-64
2023/04/05 05:36:10;;;;;;;12.73;7.03;;;1.90;99.90;;;;;;4160864;28;20341;-61
2023/04/05 05:38:11;;;;;;;4.73;2.80;;;2.00;99.90;;;;;;4160904;28;20678;-61
2023/04/05 05:40:15;;;;;;;4.97;3.00;;;2.10;99.90;;;;;;4160186;28;20317;-60
2023/04/05 05:42:16;;;;;;;5.90;2.33;;;2.30;99.90;;;;;;4160670;28;20670;-66
2023/04/05 05:44:17;;;;;;;3.83;2.53;;;2.40;99.90;;;;;;4160763;28;20333;-64
2023/04/05 05:46:19;;;;;;;3.50;2.63;;;2.40;99.90;;;;;;4160483;28;20368;-61
2023/04/05 05:48:20;;;;;;;4.70;2.50;;;2.50;99.90;;;;;;4160564;28;20321;-63
2023/04/05 05:50:21;;;;;;;3.87;2.20;;;2.50;99.90;;;;;;4160905;28;20657;-60
2023/04/05 05:52:23;;;;;;;4.20;2.10;;;2.50;99.90;;;;;;4160775;28;20309;-61
2023/04/05 05:54:25;;;;;;;3.63;2.20;;;2.50;99.90;;;;;;4161426;28;20255;-61
2023/04/05 05:56:26;;;;;;;2.90;2.37;;;2.60;99.90;;;;;;4159109;28;20282;-60
2023/04/05 05:58:28;;;;;;;3.70;2.20;;;2.70;99.90;;;;;;4160808;28;20266;-59
2023/04/05 06:00:29;;;;;;;2.50;2.03;;;2.80;99.90;;;;;;4160886;28;20310;-61
2023/04/05 06:02:31;;;;;;;3.63;2.60;;;2.90;99.90;;;;;;4160282;28;20321;-66
2023/04/05 06:04:33;;;;;;;4.60;2.90;;;2.80;99.90;;;;;;4160896;28;20678;-62
2023/04/05 06:06:34;;;;;;;4.53;2.73;;;2.70;99.90;;;;;;4160727;28;20254;-61
2023/04/05 06:08:35;;;;;;;5.80;3.80;;;2.70;99.90;;;;;;4160105;28;20624;-61
2023/04/05 06:10:37;;;;;;;6.67;3.87;;;2.70;99.90;;;;;;4159594;28;20271;-63
2023/04/05 06:12:38;;;;;;;11.53;4.13;;;2.80;99.90;;;;;;4160677;28;20313;-60
2023/04/05 06:14:39;;;;;;;6.73;3.87;;;2.80;99.90;;;;;;4160360;28;20296;-62
2023/04/05 06:16:40;;;;;;;5.40;3.67;;;2.80;99.90;;;;;;4160254;28;20775;-64
2023/04/05 06:18:41;;;;;;;5.53;3.23;;;2.70;99.90;;;;;;4160099;28;20274;-65
2023/04/05 06:20:43;;;;;;;3.43;2.33;;;2.60;99.90;;;;;;4160432;28;20344;-67
2023/04/05 06:22:44;;;;;;;3.90;2.57;;;2.60;99.90;;;;;;4160426;28;20796;-62
2023/04/05 06:24:45;;;;;;;5.43;3.00;;;2.60;99.90;;;;;;4160724;28;20262;-65
2023/04/05 06:26:46;;;;;;;4.80;2.60;;;2.70;99.90;;;;;;4160138;28;20358;-63
2023/04/05 06:28:48;;;;;;;5.20;3.10;;;2.70;99.90;;;;;;4160209;28;20765;-61
2023/04/05 06:30:49;;;;;;;5.83;3.20;;;2.70;99.90;;;;;;4160462;28;20275;-59
2023/04/05 06:32:53;;;;;;;5.57;3.20;;;2.90;99.90;;;;;;4159558;28;20309;-64
2023/04/05 06:34:54;;;;;;;7.97;4.30;;;2.90;99.90;;;;;;4159116;28;20337;-65
2023/04/05 06:36:55;;;;;;;6.67;3.53;;;3.00;99.90;;;;;;4160072;28;20770;-62
2023/04/05 06:38:56;;;;;;;5.30;3.50;;;3.10;99.90;;;;;;4159792;28;20332;-61
2023/04/05 06:40:58;;;;;;;6.67;3.93;;;2.90;99.90;;;;;;4158578;28;20271;-61
2023/04/05 06:42:59;;;;;;;5.47;3.30;;;2.90;99.90;;;;;;4160407;28;20798;-59
2023/04/05 06:45:03;;;;;;;5.07;3.57;;;3.00;99.90;;;;;;4159853;28;20271;-60
2023/04/05 06:47:04;;;;;;;5.10;3.77;;;2.90;99.90;;;;;;4160296;28;20312;-60
2023/04/05 06:49:05;;;;;;;6.10;3.83;;;2.90;99.90;;;;;;4159776;28;20762;-60
2023/04/05 06:51:06;;;;;;;6.33;3.43;;;2.90;99.90;;;;;;4159983;28;20349;-67
2023/04/05 06:53:07;;;;;;;4.80;3.30;;;3.00;99.90;;;;;;4159750;28;20278;-63
2023/04/05 06:55:09;;;;;;;7.33;3.73;;;3.00;99.90;;;;;;4160531;28;20752;-60
2023/04/05 06:57:10;;;;;;;3.20;2.80;;;3.20;99.90;;;;;;4159848;28;20860;-61
2023/04/05 06:59:11;;;;;;;3.63;2.60;;;3.30;99.90;;;;;;4159699;28;20263;-61
2023/04/05 07:01:12;;;;;;;4.03;1.87;;;3.00;99.90;;;;;;4159955;28;20486;-61
2023/04/05 07:03:13;;;;;;;4.53;2.57;;;3.10;99.90;;;;;;4159787;28;20328;-60
2023/04/05 07:05:14;;;;;;;3.67;2.40;;;3.30;99.90;;;;;;4157954;28;20278;-61
2023/04/05 07:07:16;;;;;;;15.90;10.13;;;3.40;99.90;;;;;;4159712;28;20329;-63
2023/04/05 07:09:19;;;;;;;6.13;4.07;;;3.70;99.90;;;;;;4159455;28;20274;-61
2023/04/05 07:11:20;;;;;;;3.03;2.20;;;3.80;99.90;;;;;;4159717;28;20278;-63
2023/04/05 07:13:23;;;;;;;2.97;2.03;;;4.10;99.90;;;;;;4160156;28;20662;-61
2023/04/05 07:15:24;;;;;;;2.63;2.03;;;4.10;99.90;;;;;;4159488;28;20278;-59
2023/04/05 07:17:26;;;;;;;3.97;2.40;;;4.10;99.90;;;;;;4159330;28;20295;-61
2023/04/05 07:19:27;;;;;;;4.60;3.20;;;4.10;99.90;;;;;;4159334;28;20348;-60
2023/04/05 07:21:30;;;;;;;4.40;2.93;;;4.10;99.90;;;;;;4159922;28;20258;-58
2023/04/05 07:23:31;;;;;;;4.03;2.73;;;4.30;99.90;;;;;;4159254;28;20813;-66
2023/04/05 07:25:33;;;;;;;3.00;2.37;;;4.40;99.90;;;;;;4160142;28;20742;-60
2023/04/05 07:27:34;;;;;;;5.53;2.87;;;4.40;99.90;;;;;;4159061;28;20298;-62
2023/04/05 07:29:39;;;;;;;4.83;2.73;;;4.50;99.90;;;;;;4159336;28;20329;-61
2023/04/05 07:31:40;;;;;;;3.93;2.67;;;4.50;99.90;;;;;;4158871;28;20332;-63
2023/04/05 07:33:41;;;;;;;2.33;1.83;;;4.40;99.90;;;;;;4158888;28;20283;-61
2023/04/05 07:35:42;;;;;;;4.03;2.00;;;4.40;99.90;;;;;;4159477;28;20283;-61
2023/04/05 07:37:44;;;;;;;2.10;1.80;;;4.30;99.90;;;;;;4158784;28;20299;-60
2023/04/05 07:39:45;;;;;;;3.50;2.20;;;4.40;99.90;;;;;;4159453;28;20266;-61
2023/04/05 07:41:46;;;;;;;4.23;2.90;;;4.40;99.90;;;;;;4158795;28;20263;-61
2023/04/05 07:43:47;;;;;;;5.13;2.60;;;4.40;99.90;;;;;;4157826;28;20279;-61
2023/04/05 07:45:48;;;;;;;5.60;2.87;;;4.50;99.90;;;;;;4159144;28;20758;-61
2023/04/05 07:47:49;;;;;;;4.13;2.30;;;4.50;99.90;;;;;;4157833;28;20739;-61
2023/04/05 07:49:50;;;;;;;4.63;2.53;;;4.30;99.90;;;;;;4159209;28;20271;-62
2023/04/05 07:51:55;;;;;;;3.57;2.60;;;4.20;99.90;;;;;;4157941;28;20859;-60
2023/04/05 07:53:57;;;;;;;3.07;2.30;;;4.10;99.90;;;;;;4159488;28;20833;-62
2023/04/05 07:56:05;;;;;;;3.67;2.50;;;4.10;99.90;;;;;;4159559;28;20324;-61
2023/04/05 07:58:06;;;;;;;4.57;3.03;;;4.20;99.90;;;;;;4158914;28;20302;-60
2023/04/05 08:00:12;;;;;;;3.37;2.43;;;4.00;99.90;;;;;;4159047;28;20333;-61
2023/04/05 08:02:13;;;;;;;2.97;2.13;;;4.00;99.90;;;;;;4158914;28;20317;-64
2023/04/05 08:04:14;;;;;;;2.70;2.00;;;4.10;99.90;;;;;;4160535;28;20267;-63
2023/04/05 08:06:18;;;;;;;3.10;2.13;;;3.80;99.90;;;;;;4162655;28;20393;-62
2023/04/05 08:08:20;;;;;;;3.50;2.30;;;3.60;99.90;;;;;;4161648;28;20279;-61
2023/04/05 08:10:21;;;;;;;2.97;2.63;;;3.40;99.90;;;;;;4162897;28;20297;-63
2023/04/05 08:12:22;;;;;;;2.63;2.10;;;3.30;99.90;;;;;;4161836;28;20271;-63
2023/04/05 08:14:24;;;;;;;5.63;3.73;;;3.40;99.90;;;;;;4162525;28;20318;-63
2023/04/05 08:16:25;;;;;;;4.97;4.27;;;3.60;99.90;;;;;;4161477;28;20313;-61
2023/04/05 08:18:26;;;;;;;8.70;3.67;;;3.60;99.90;;;;;;4161809;28;20693;-61
2023/04/05 08:20:27;;;;;;;4.67;3.13;;;3.70;99.90;;;;;;4161675;28;20262;-62
2023/04/05 08:22:29;;;;;;;4.77;3.40;;;3.70;99.90;;;;;;4162014;28;20275;-61
2023/04/05 08:24:30;;;;;;;4.33;3.03;;;3.70;99.90;;;;;;4160468;28;20275;-61
2023/04/05 08:26:31;;;;;;;4.27;3.43;;;3.70;99.90;;;;;;4161337;28;20271;-63
2023/04/05 08:28:33;;;;;;;5.60;3.60;;;3.80;99.90;;;;;;4162440;28;20267;-62
2023/04/05 08:30:34;;;;;;;9.40;4.20;;;3.70;99.90;;;;;;4161020;28;20255;-61
2023/04/05 08:32:35;;;;;;;4.93;3.43;;;3.50;99.90;;;;;;4162439;28;20360;-64
2023/04/05 08:34:36;;;;;;;3.07;2.50;;;3.60;99.90;;;;;;4161176;28;20262;-61
2023/04/05 08:36:37;;;;;;;6.50;3.33;;;3.80;99.90;;;;;;4162061;28;20258;-61
2023/04/05 08:38:39;;;;;;;6.33;4.00;;;3.80;99.90;;;;;;4161051;28;20333;-62
2023/04/05 08:40:45;;;;;;;4.57;3.80;;;3.90;99.90;;;;;;4161955;28;20271;-60
2023/04/05 08:42:55;;;;;;;8.67;3.77;;;3.90;99.90;;;;;;4161280;28;20794;-62
2023/04/05 08:44:58;;;;;;;8.82;4.50;;;4.00;99.90;;;;;;4161969;28;20267;-65
2023/04/05 08:47:00;;;;;;;6.83;4.43;;;3.90;99.90;;;;;;4159575;28;20583;-61
2023/04/05 08:49:08;;;;;;;5.80;4.10;;;3.90;99.90;;;;;;4161221;28;20263;-65
2023/04/05 08:51:09;;;;;;;6.23;4.50;;;4.00;99.90;;;;;;4161525;28;20432;-61
2023/04/05 08:53:10;;;;;;;6.43;5.00;;;4.00;99.90;;;;;;4161595;28;20660;-65
2023/04/05 08:55:12;;;;;;;7.30;4.73;;;4.10;99.90;;;;;;4161919;28;20334;-62
2023/04/05 08:57:14;;;;;;;6.73;4.37;;;4.30;99.90;;;;;;4160714;28;20278;-66
2023/04/05 08:59:18;;;;;;;9.33;5.00;;;4.20;99.90;;;;;;4161777;28;20412;-64
2023/04/05 09:01:20;;;;;;;8.10;3.47;;;4.20;99.90;;;;;;4160664;28;20313;-66
2023/04/05 09:03:24;;;;;;;9.27;3.90;;;4.20;99.90;;;;;;4162085;28;20267;-66
2023/04/05 09:05:26;;;;;;;5.40;4.07;;;4.00;99.90;;;;;;4160934;28;20267;-64
2023/04/05 09:07:30;;;;;;;4.97;3.70;;;3.90;99.90;;;;;;4161879;28;20278;-64
2023/04/05 09:09:35;;;;;;;4.63;3.90;;;3.90;99.90;;;;;;4160666;28;20267;-60
2023/04/05 09:11:37;;;;;;;3.47;2.97;;;3.90;99.90;;;;;;4161954;28;20360;-64
2023/04/05 09:13:38;;;;;;;5.07;3.73;;;4.00;99.90;;;;;;4161140;28;20276;-60
2023/04/05 09:15:40;;;;;;;7.53;4.20;;;4.10;99.90;;;;;;4160458;28;20689;-62
2023/04/05 09:17:42;;;;;;;8.10;5.00;;;4.20;99.90;;;;;;4160745;28;20307;-60
2023/04/05 09:19:44;;;;;;;17.90;8.53;;;4.40;99.90;;;;;;4161320;28;20305;-63
2023/04/05 09:21:58;;;;;;;6.73;5.33;;;4.60;99.90;;;;;;4160947;28;20333;-65
2023/04/05 09:23:59;;;;;;;7.37;4.40;;;4.80;99.90;;;;;;4160866;28;20263;-63
2023/04/05 09:26:20;;;;;;;12.53;5.73;;;4.80;99.90;;;;;;4162117;28;20259;-60
2023/04/05 09:28:21;;;;;;;23.35;13.18;;;4.80;99.90;;;;;;4161140;28;20829;-64
2023/04/05 09:30:23;;;;;;;8.97;5.70;;;4.90;99.90;;;;;;4160878;28;20104;-63
2023/04/05 09:32:28;;;;;;;5.87;4.20;;;4.90;99.90;;;;;;4160894;28;20780;-64
2023/04/05 09:34:31;;;;;;;6.83;4.33;;;4.70;99.90;;;;;;4161755;28;20812;-64
2023/04/05 09:36:33;;;;;;;5.27;4.20;;;4.30;99.90;;;;;;4159765;28;20320;-67
2023/04/05 09:38:45;;;;;;;5.97;4.73;;;4.00;99.90;;;;;;4161217;28;20399;-63
2023/04/05 09:40:47;;;;;;;8.20;6.03;;;3.70;99.90;;;;;;4160449;28;20320;-60
2023/04/05 09:42:50;;;;;;;9.40;5.67;;;3.70;99.90;;;;;;4160339;28;20266;-63
2023/04/05 09:44:55;;;;;;;14.20;7.17;;;3.80;99.90;;;;;;4160497;28;20816;-64
2023/04/05 09:46:57;;;;;;;7.83;5.97;;;4.00;99.90;;;;;;4161799;28;20305;-64
2023/04/05 09:48:58;;;;;;;9.17;5.33;;;4.20;99.90;;;;;;4160090;28;20597;-63
2023/04/05 09:51:09;;;;;;;10.97;5.90;;;4.30;99.90;;;;;;4161591;28;20267;-61
2023/04/05 09:53:15;;;;;;;9.68;6.70;;;4.20;99.90;;;;;;4159529;28;20270;-58
2023/04/05 09:55:26;;;;;;;21.57;11.57;;;4.20;99.90;;;;;;4161442;28;20033;-63
2023/04/05 09:57:32;;;;;;;18.40;11.00;;;4.30;99.90;;;;;;4158541;28;20717;-60
2023/04/05 09:59:34;;;;;;;10.80;7.23;;;4.30;99.90;;;;;;4161200;28;20812;-61
2023/04/05 10:01:36;;;;;;;9.67;6.60;;;4.30;99.90;;;;;;4158576;28;20720;-61
2023/04/05 10:03:46;;;;;;;10.77;6.40;;;4.40;99.90;;;;;;4160987;28;20278;-61
2023/04/05 10:05:54;;;;;;;9.45;6.05;;;4.50;99.90;;;;;;4159637;28;20275;-60
2023/04/05 10:07:56;;;;;;;9.07;5.50;;;4.50;99.90;;;;;;4161090;28;20045;-61
2023/04/05 10:09:57;;;;;;;8.60;5.07;;;4.60;99.90;;;;;;4160129;28;20666;-66
2023/04/05 10:12:00;;;;;;;14.40;7.77;;;4.50;99.90;;;;;;4160385;28;20845;-62
2023/04/05 10:14:05;;;;;;;7.97;5.70;;;4.40;99.90;;;;;;4160375;28;20290;-59
2023/04/05 10:16:12;;;;;;;8.10;5.77;;;4.40;99.90;;;;;;4158527;28;20325;-61
2023/04/05 10:18:28;;;;;;;8.00;5.70;;;4.30;99.90;;;;;;4160590;28;20294;-61
2023/04/05 10:20:32;;;;;;;9.17;6.10;;;4.40;99.90;;;;;;4159865;28;20758;-61
2023/04/05 10:23:02;;;;;;;9.93;6.40;;;4.60;99.90;;;;;;4160854;28;20266;-64
2023/04/05 10:25:23;;;;;;;8.20;6.13;;;4.60;99.90;;;;;;4153396;28;20287;-61
2023/04/05 10:27:37;;;;;;;9.18;5.93;;;4.60;99.90;;;;;;4159550;28;20088;-60
2023/04/05 10:29:49;;;;;;;10.93;5.77;;;4.80;99.90;;;;;;4160828;28;20091;-63
2023/04/05 10:32:09;;;;;;;8.33;5.87;;;4.80;99.90;;;;;;4159421;28;20274;-61
2023/04/05 10:34:23;;;;;;;9.80;5.28;;;4.90;99.90;;;;;;4161180;28;20262;-60
2023/04/05 10:36:52;;;;;;;10.50;6.40;;;5.00;99.90;;;;;;4159631;28;20033;-62
2023/04/05 10:39:07;;;;;;;7.07;4.93;;;5.20;99.90;;;;;;4160801;28;20041;-59
2023/04/05 10:41:11;;;;;;;7.30;4.50;;;5.30;99.90;;;;;;4159325;28;20766;-64
2023/04/05 10:43:20;;;;;;;6.73;4.70;;;5.40;99.90;;;;;;4159290;28;20271;-61
2023/04/05 10:45:22;;;;;;;5.67;4.37;;;5.50;99.90;;;;;;4158507;28;20305;-62
2023/04/05 10:47:27;;;;;;;4.83;4.13;;;5.60;99.90;;;;;;4161139;28;20316;-61